Time;durP1;ratioP1;P1;durP2;ratioP2;P2;SDS_P1;SDS_P2;PMS_P1;PMS_P2;Temp;Humidity;BMP_temperature;BMP_pressure;BME280_temperature;BME280_humidity;BME280_pressure;Samples;Min_cycle;Max_cycle;Signal;HPM_P1;HPM_P2
2023/05/26 00:00:34;;;;;;;;;3.50;3.50;;;;;11.79;62.77;103027.22;5038472;28;10854;-65
2023/05/26 00:03:03;;;;;;;;;3.25;3.25;;;;;11.79;62.62;103019.97;5032197;28;9993;-65
2023/05/26 00:05:30;;;;;;;;;6.00;3.00;;;;;11.77;62.68;103027.34;5048795;28;9995;-65
2023/05/26 00:07:56;;;;;;;;;4.50;1.00;;;;;11.85;62.70;103029.34;5029278;28;10005;-65
2023/05/26 00:10:24;;;;;;;;;2.75;2.75;;;;;11.86;62.41;103031.03;5033202;28;9901;-66
2023/05/26 00:12:50;;;;;;;;;4.50;4.50;;;;;11.79;62.04;103032.63;5025628;28;10735;-67
2023/05/26 00:15:16;;;;;;;;;6.75;2.00;;;;;11.82;62.54;103027.75;5022689;28;10162;-65
2023/05/26 00:17:43;;;;;;;;;5.25;4.75;;;;;11.89;63.04;103030.75;5045875;28;10816;-66
2023/05/26 00:20:10;;;;;;;;;4.00;3.00;;;;;11.91;62.62;103033.28;5045652;28;9899;-65
2023/05/26 00:22:37;;;;;;;;;4.50;2.00;;;;;11.87;62.28;103035.47;5041513;28;9995;-66
2023/05/26 00:25:04;;;;;;;;;5.75;3.50;;;;;11.80;62.38;103029.78;5015541;28;9830;-65
2023/05/26 00:27:30;;;;;;;;;5.75;4.50;;;;;11.77;61.77;103029.22;5049331;28;9991;-65
2023/05/26 00:29:58;;;;;;;;;5.00;4.00;;;;;11.77;62.61;103034.59;5029882;28;10093;-66
2023/05/26 00:32:25;;;;;;;;;6.00;2.00;;;;;11.78;62.34;103030.91;5022690;28;10099;-65
2023/05/26 00:34:52;;;;;;;;;6.25;5.00;;;;;11.82;62.95;103030.47;5030026;28;9996;-66
2023/05/26 00:37:19;;;;;;;;;11.00;4.75;;;;;11.84;62.61;103035.75;5050485;28;10180;-66
2023/05/26 00:39:46;;;;;;;;;5.00;3.25;;;;;11.83;63.05;103034.91;5034988;28;10706;-68
2023/05/26 00:42:12;;;;;;;;;6.00;4.75;;;;;11.78;62.63;103031.75;5042491;28;9851;-65
2023/05/26 00:44:39;;;;;;;;;3.50;2.25;;;;;11.77;63.40;103038.16;5014213;28;10142;-68
2023/05/26 00:47:05;;;;;;;;;6.00;3.00;;;;;11.76;63.56;103025.66;5043194;28;9865;-66
2023/05/26 00:49:32;;;;;;;;;5.50;5.50;;;;;11.83;63.31;103025.97;5030960;28;10014;-67
2023/05/26 00:51:58;;;;;;;;;3.50;3.50;;;;;11.79;63.13;103025.38;5043245;28;9892;-66
2023/05/26 00:54:25;;;;;;;;;4.75;2.00;;;;;11.83;63.50;103020.56;5023154;28;9953;-67
2023/05/26 00:56:54;;;;;;;;;11.00;7.25;;;;;11.85;62.64;103023.94;5045148;28;9881;-65
2023/05/26 00:59:21;;;;;;;;;4.75;2.00;;;;;11.77;63.63;103019.25;5043531;28;10082;-64
2023/05/26 01:01:49;;;;;;;;;4.75;3.25;;;;;11.76;63.28;103017.56;5015150;28;9887;-68
2023/05/26 01:04:17;;;;;;;;;6.00;4.50;;;;;11.75;63.98;103020.41;5028936;28;9935;-64
2023/05/26 01:06:44;;;;;;;;;8.25;6.00;;;;;11.72;63.36;103026.97;5031760;28;9988;-66
2023/05/26 01:09:14;;;;;;;;;5.50;3.25;;;;;11.74;64.13;103022.25;5026098;28;9927;-66
2023/05/26 01:11:50;;;;;;;;;6.25;5.00;;;;;11.82;64.31;103030.47;5025708;28;9925;-65
2023/05/26 01:14:31;;;;;;;;;9.25;4.25;;;;;11.89;63.93;103036.16;5038489;28;10398;-65
2023/05/26 01:17:25;;;;;;;;;2.00;2.00;;;;;11.89;63.16;103038.84;5036528;28;9907;-67
2023/05/26 01:20:08;;;;;;;;;10.25;4.25;;;;;11.80;63.06;103032.47;5020221;28;9879;-66
2023/05/26 01:22:50;;;;;;;;;4.25;2.00;;;;;11.85;64.14;103035.59;5050089;28;10026;-66
2023/05/26 01:25:25;;;;;;;;;6.75;5.50;;;;;11.92;63.72;103037.72;5033536;28;10082;-65
2023/05/26 01:28:05;;;;;;;;;5.50;3.00;;;;;11.89;63.98;103038.84;5033976;28;10827;-66
2023/05/26 01:30:35;;;;;;;;;6.00;6.00;;;;;11.82;63.02;103037.72;5050542;28;9866;-65
2023/05/26 01:33:01;;;;;;;;;11.00;5.50;;;;;11.79;63.60;103038.03;5030522;28;9822;-66
2023/05/26 01:35:28;;;;;;;;;5.75;5.00;;;;;11.79;63.88;103046.13;5046110;28;10074;-64
2023/05/26 01:37:56;;;;;;;;;8.75;4.00;;;;;11.79;64.16;103046.97;5051047;28;9926;-65
2023/05/26 01:40:23;;;;;;;;;3.25;3.00;;;;;11.81;63.93;103042.25;5046109;28;9976;-66
2023/05/26 01:42:55;;;;;;;;;3.50;3.00;;;;;11.91;64.21;103041.38;5049615;28;10048;-67
2023/05/26 01:45:30;;;;;;;;;3.00;2.00;;;;;12.01;64.32;103047.59;5043501;28;10128;-66
2023/05/26 01:48:02;;;;;;;;;7.50;6.00;;;;;12.03;63.47;103056.38;5024495;28;10001;-66
2023/05/26 01:50:34;;;;;;;;;6.00;6.00;;;;;12.00;63.80;103045.91;5032193;28;10013;-65
2023/05/26 01:53:08;;;;;;;;;5.00;3.00;;;;;11.94;63.12;103046.50;5035988;28;9935;-65
2023/05/26 01:55:38;;;;;;;;;3.50;2.50;;;;;11.89;63.47;103052.34;5040004;28;9759;-65
2023/05/26 01:58:05;;;;;;;;;4.25;4.00;;;;;11.86;63.16;103048.09;5043856;28;9934;-65
2023/05/26 02:00:35;;;;;;;;;1.75;1.75;;;;;11.86;62.97;103050.78;5026512;28;9930;-66
2023/05/26 02:03:01;;;;;;;;;3.00;3.00;;;;;11.88;63.32;103051.50;5024421;28;10703;-67
2023/05/26 02:05:28;;;;;;;;;6.50;3.00;;;;;11.92;63.36;103052.06;5013969;28;10008;-67
2023/05/26 02:07:55;;;;;;;;;2.50;1.75;;;;;11.87;63.11;103049.81;5031311;28;10022;-66
2023/05/26 02:10:22;;;;;;;;;6.00;3.00;;;;;11.90;63.78;103051.34;5018291;28;9846;-65
2023/05/26 02:12:49;;;;;;;;;9.75;6.50;;;;;11.88;63.31;103050.66;5020833;28;9864;-66
2023/05/26 02:15:15;;;;;;;;;3.00;3.00;;;;;11.86;63.52;103048.09;5036448;28;10014;-66
2023/05/26 02:17:42;;;;;;;;;6.25;6.00;;;;;11.85;63.88;103049.09;5031487;28;10068;-66
2023/05/26 02:20:10;;;;;;;;;9.75;7.00;;;;;11.86;63.40;103064.28;5032427;28;10049;-65
2023/05/26 02:22:38;;;;;;;;;6.00;4.50;;;;;11.87;63.53;103055.19;5022727;28;12484;-65
2023/05/26 02:25:05;;;;;;;;;5.50;2.75;;;;;11.80;63.45;103050.50;5031929;28;9914;-67
2023/05/26 02:27:31;;;;;;;;;5.00;4.00;;;;;11.74;63.06;103062.72;5032612;28;10134;-66
2023/05/26 02:29:58;;;;;;;;;4.50;3.00;;;;;11.70;63.23;103060.47;5032616;28;9990;-66
2023/05/26 02:32:25;;;;;;;;;4.75;4.00;;;;;11.71;63.11;103054.06;5011167;28;10965;-66
2023/05/26 02:34:52;;;;;;;;;5.00;5.00;;;;;11.72;63.71;103056.66;5019586;28;9851;-66
2023/05/26 02:37:18;;;;;;;;;3.00;3.00;;;;;11.75;63.16;103055.47;5027409;28;10067;-67
2023/05/26 02:39:45;;;;;;;;;5.25;5.25;;;;;11.75;63.75;103063.56;5044065;28;10015;-67
2023/05/26 02:42:11;;;;;;;;;3.00;3.00;;;;;11.80;63.21;103058.59;5037411;28;10010;-66
2023/05/26 02:44:38;;;;;;;;;5.50;5.00;;;;;11.79;62.99;103065.00;5046809;28;9917;-65
2023/05/26 02:47:05;;;;;;;;;7.00;3.25;;;;;11.78;62.85;103058.72;5020865;28;10027;-67
2023/05/26 02:49:31;;;;;;;;;4.00;4.00;;;;;11.78;63.13;103058.72;5029008;28;10169;-66
2023/05/26 02:51:58;;;;;;;;;4.25;3.00;;;;;11.83;63.49;103058.34;5050646;28;9900;-66
2023/05/26 02:54:24;;;;;;;;;5.00;3.50;;;;;11.81;62.43;103060.28;5030828;28;9889;-66
2023/05/26 02:56:51;;;;;;;;;8.25;3.50;;;;;11.79;63.13;103055.06;5031421;28;10085;-66
2023/05/26 02:59:17;;;;;;;;;10.75;5.50;;;;;11.77;63.09;103064.28;5036480;28;10023;-68
2023/05/26 03:01:44;;;;;;;;;4.00;4.00;;;;;11.67;63.38;103064.34;5033974;28;10836;-66
2023/05/26 03:04:11;;;;;;;;;5.50;4.50;;;;;11.69;63.63;103061.47;5041333;28;10057;-65
2023/05/26 03:06:38;;;;;;;;;4.00;4.00;;;;;11.68;63.06;103063.34;5025516;28;10111;-67
2023/05/26 03:09:04;;;;;;;;;8.00;5.00;;;;;11.64;62.95;103056.53;5047543;28;10713;-65
2023/05/26 03:11:32;;;;;;;;;4.25;3.00;;;;;11.61;63.33;103057.66;5028314;28;10719;-65
2023/05/26 03:13:59;;;;;;;;;5.50;5.00;;;;;11.61;63.85;103063.06;5023407;28;10017;-66
2023/05/26 03:16:27;;;;;;;;;10.00;5.00;;;;;11.67;63.99;103071.56;5028525;28;10013;-67
2023/05/26 03:18:55;;;;;;;;;2.50;2.00;;;;;11.71;63.84;103062.16;5015439;28;9913;-66
2023/05/26 03:21:22;;;;;;;;;4.75;4.00;;;;;11.63;62.99;103071.03;5048495;28;10066;-67
2023/05/26 03:24:08;;;;;;;;;6.00;3.75;;;;;11.65;63.82;103071.72;5015454;28;9998;-68
2023/05/26 03:26:35;;;;;;;;;7.50;3.00;;;;;11.70;63.99;103072.13;5019385;28;10011;-66
2023/05/26 03:29:02;;;;;;;;;7.00;3.50;;;;;11.69;63.65;103075.81;5030084;28;10052;-66
2023/05/26 03:31:28;;;;;;;;;5.25;3.50;;;;;11.69;63.33;103067.72;5028621;28;9907;-66
2023/05/26 03:33:55;;;;;;;;;8.25;5.50;;;;;11.72;63.88;103069.28;5025416;28;10102;-66
2023/05/26 03:36:22;;;;;;;;;6.25;5.75;;;;;11.75;63.87;103061.75;5023923;28;9988;-67
2023/05/26 03:38:51;;;;;;;;;6.75;3.50;;;;;11.67;63.20;103074.25;5010157;28;9857;-66
2023/05/26 03:41:20;;;;;;;;;10.00;6.00;;;;;11.69;63.33;103067.72;5023712;28;10112;-66
2023/05/26 03:43:52;;;;;;;;;6.50;5.50;;;;;11.68;62.97;103079.53;5030635;28;10072;-68
2023/05/26 03:46:19;;;;;;;;;7.75;5.75;;;;;11.66;63.01;103069.84;5030851;28;9990;-66
2023/05/26 03:48:46;;;;;;;;;7.00;6.00;;;;;11.63;63.56;103076.41;5027517;28;10124;-66
2023/05/26 03:51:13;;;;;;;;;4.50;4.50;;;;;11.60;63.92;103074.84;5031689;28;10050;-66
2023/05/26 03:53:39;;;;;;;;;6.00;5.50;;;;;11.64;63.64;103075.41;5051057;28;9904;-65
2023/05/26 03:56:06;;;;;;;;;4.50;4.00;;;;;11.71;62.95;103073.84;5027831;28;10033;-65
2023/05/26 03:58:32;;;;;;;;;7.75;5.50;;;;;11.68;62.80;103079.53;5032854;28;9966;-65
2023/05/26 04:01:00;;;;;;;;;5.00;5.00;;;;;11.63;62.04;103071.88;5005871;28;11060;-68
2023/05/26 04:03:26;;;;;;;;;12.00;6.50;;;;;11.61;62.37;103083.78;5027334;28;9966;-66
2023/05/26 04:05:53;;;;;;;;;3.25;3.25;;;;;11.61;61.98;103087.34;5029538;28;10140;-68
2023/05/26 04:08:20;;;;;;;;;3.75;3.75;;;;;11.56;61.59;103081.53;5030115;28;10097;-66
2023/05/26 04:10:46;;;;;;;;;4.00;3.50;;;;;11.52;61.74;103087.38;5041608;28;10021;-65
2023/05/26 04:13:14;;;;;;;;;6.00;5.00;;;;;11.43;61.63;103085.56;5047053;28;10044;-66
2023/05/26 04:15:41;;;;;;;;;5.00;3.00;;;;;11.44;62.09;103087.25;5029726;28;10077;-66
2023/05/26 04:18:07;;;;;;;;;6.50;6.50;;;;;11.51;61.96;103093.78;5029051;28;10005;-66
2023/05/26 04:20:34;;;;;;;;;3.50;2.75;;;;;11.52;62.06;103081.97;5034049;28;10143;-66
2023/05/26 04:23:02;;;;;;;;;6.00;5.00;;;;;11.52;61.46;103084.69;5050341;28;10282;-66
2023/05/26 04:25:28;;;;;;;;;8.25;4.75;;;;;11.55;61.16;103087.94;5029336;28;10766;-66
2023/05/26 04:28:02;;;;;;;;;3.00;3.00;;;;;11.50;61.86;103086.66;5026325;28;10254;-65
2023/05/26 04:30:39;;;;;;;;;4.00;4.00;;;;;11.43;61.78;103091.78;5047633;28;10045;-65
2023/05/26 04:33:22;;;;;;;;;4.50;1.50;;;;;11.39;61.76;103093.94;5049949;28;10063;-66
2023/05/26 04:36:00;;;;;;;;;4.00;4.00;;;;;11.34;62.00;103090.81;5034790;28;10167;-66
2023/05/26 04:38:26;;;;;;;;;7.50;3.50;;;;;11.27;62.25;103092.38;5026128;28;10001;-69
2023/05/26 04:40:57;;;;;;;;;3.00;3.00;;;;;11.30;62.36;103089.41;5030300;28;9998;-67
2023/05/26 04:43:24;;;;;;;;;5.00;5.00;;;;;11.38;62.58;103099.44;5051522;28;10122;-66
2023/05/26 04:45:51;;;;;;;;;6.50;5.00;;;;;11.41;61.97;103103.72;5035848;28;10148;-66
2023/05/26 04:48:20;;;;;;;;;2.00;2.00;;;;;11.37;62.15;103104.00;5041582;28;10079;-67
2023/05/26 04:50:46;;;;;;;;;1.75;1.75;;;;;11.43;62.86;103104.44;5030083;28;10038;-68
2023/05/26 04:53:13;;;;;;;;;8.25;4.75;;;;;11.46;62.12;103109.50;5035938;28;10190;-67
2023/05/26 04:55:40;;;;;;;;;4.50;1.75;;;;;11.41;62.30;103109.09;5026388;28;10085;-66
2023/05/26 04:58:08;;;;;;;;;5.50;4.75;;;;;11.38;62.52;103113.81;5025366;28;10041;-66
2023/05/26 05:00:36;;;;;;;;;2.25;2.25;;;;;11.36;62.21;103126.56;5048128;28;10127;-65
2023/05/26 05:03:26;;;;;;;;;6.50;4.50;;;;;11.30;61.76;103126.28;5039849;28;10117;-67
2023/05/26 05:06:01;;;;;;;;;1.75;1.25;;;;;11.31;61.72;103123.47;5048551;28;10256;-67
2023/05/26 05:08:27;;;;;;;;;5.50;4.50;;;;;11.34;61.79;103128.56;5023969;28;10110;-66
2023/05/26 05:10:54;;;;;;;;;3.25;2.00;;;;;11.36;61.21;103140.06;5017340;28;10887;-66
2023/05/26 05:13:21;;;;;;;;;3.00;3.00;;;;;11.35;61.42;103140.22;5027610;28;10152;-67
2023/05/26 05:15:48;;;;;;;;;4.00;2.75;;;;;11.37;62.42;103143.59;5035032;28;10116;-65
2023/05/26 05:18:15;;;;;;;;;4.75;4.00;;;;;11.46;62.21;103149.97;5050646;28;10057;-66
2023/05/26 05:20:42;;;;;;;;;5.50;2.75;;;;;11.53;62.00;103140.31;5028470;28;10013;-68
2023/05/26 05:23:09;;;;;;;;;3.00;3.00;;;;;11.60;62.60;103141.44;5031562;28;10078;-66
2023/05/26 05:25:36;;;;;;;;;4.25;1.00;;;;;11.67;62.21;103137.19;5026481;28;10123;-66
2023/05/26 05:28:03;;;;;;;;;6.50;4.50;;;;;11.68;61.77;103141.56;5034119;28;9989;-65
2023/05/26 05:30:31;;;;;;;;;3.25;2.00;;;;;11.66;61.92;103140.84;5021185;28;10157;-67
2023/05/26 05:32:58;;;;;;;;;6.00;5.25;;;;;11.74;61.94;103146.38;5027644;28;10189;-66
2023/05/26 05:35:25;;;;;;;;;4.50;3.00;;;;;11.76;61.04;103151.66;5032304;28;9979;-65
2023/05/26 05:37:56;;;;;;;;;6.25;3.00;;;;;11.70;61.16;103152.22;5016249;28;10024;-66
2023/05/26 05:40:24;;;;;;;;;4.25;4.00;;;;;11.71;61.30;103148.50;5027073;28;9981;-66
2023/05/26 05:42:52;;;;;;;;;3.50;2.50;;;;;11.67;61.80;103142.56;5038171;28;9992;-66
2023/05/26 05:45:19;;;;;;;;;3.00;2.00;;;;;11.77;61.48;103143.38;5024997;28;10117;-65
2023/05/26 05:48:09;;;;;;;;;9.50;5.00;;;;;11.82;61.64;103145.66;5043305;28;9979;-67
2023/05/26 05:50:46;;;;;;;;;3.25;2.50;;;;;11.87;61.18;103146.13;5034415;28;10104;-67
2023/05/26 05:53:13;;;;;;;;;4.00;2.25;;;;;11.93;60.81;103147.38;5032854;28;9997;-66
2023/05/26 05:55:40;;;;;;;;;5.00;5.00;;;;;11.87;60.69;103157.75;5050612;28;9988;-66
2023/05/26 05:58:07;;;;;;;;;3.25;3.25;;;;;11.76;60.12;103162.44;5033284;28;10211;-66
2023/05/26 06:00:34;;;;;;;;;3.75;3.75;;;;;11.69;60.43;103162.16;5031191;28;10021;-65
2023/05/26 06:03:00;;;;;;;;;2.00;2.00;;;;;11.75;60.38;103167.00;5032079;28;9913;-68
2023/05/26 06:05:28;;;;;;;;;4.00;4.00;;;;;11.79;60.98;103168.41;5031759;28;9892;-65
2023/05/26 06:07:54;;;;;;;;;2.00;2.00;;;;;11.93;61.57;103168.97;5047799;28;9872;-66
2023/05/26 06:10:21;;;;;;;;;4.00;2.75;;;;;12.03;60.77;103173.34;5039344;28;9848;-65
2023/05/26 06:12:47;;;;;;;;;6.00;3.50;;;;;11.96;60.37;103169.53;5036227;28;9999;-67
2023/05/26 06:15:17;;;;;;;;;3.75;3.25;;;;;11.78;60.50;103185.56;5050023;28;9912;-65
2023/05/26 06:17:44;;;;;;;;;6.00;2.50;;;;;11.71;60.83;103178.19;5031803;28;10001;-66
2023/05/26 06:20:11;;;;;;;;;9.50;3.00;;;;;11.70;61.14;103180.03;5029212;28;9853;-66
2023/05/26 06:22:38;;;;;;;;;5.25;5.25;;;;;11.71;61.35;103179.06;5032345;28;10137;-65
2023/05/26 06:25:05;;;;;;;;;5.00;4.00;;;;;11.70;61.14;103181.88;5032293;28;10017;-67
2023/05/26 06:27:32;;;;;;;;;5.00;2.00;;;;;11.67;60.53;103187.56;5048366;28;10064;-65
2023/05/26 06:29:59;;;;;;;;;3.00;2.75;;;;;11.62;61.16;103185.31;5048735;28;10110;-66
2023/05/26 06:32:26;;;;;;;;;3.25;2.25;;;;;11.70;61.93;103179.19;5033067;28;10071;-66
2023/05/26 06:34:52;;;;;;;;;6.50;3.50;;;;;11.78;61.92;103176.63;5045381;28;9982;-66
2023/05/26 06:37:19;;;;;;;;;10.75;5.00;;;;;11.93;61.37;103179.75;5043784;28;10006;-65
2023/05/26 06:39:45;;;;;;;;;9.00;4.75;;;;;12.09;61.54;103180.00;5032530;28;10062;-66
2023/05/26 06:42:18;;;;;;;;;3.00;3.00;;;;;12.20;61.27;103185.22;5021624;28;10211;-65
2023/05/26 06:44:45;;;;;;;;;4.00;3.50;;;;;12.28;60.84;103184.47;5022926;28;9987;-66
2023/05/26 06:47:18;;;;;;;;;2.75;1.50;;;;;12.36;60.05;103181.88;5039492;28;9842;-67
2023/05/26 06:49:47;;;;;;;;;3.50;3.00;;;;;12.24;60.60;103197.44;5048603;28;9870;-66
2023/05/26 06:52:14;;;;;;;;;7.25;5.75;;;;;12.18;59.68;103183.66;5028189;28;9837;-67
2023/05/26 06:54:40;;;;;;;;;4.25;4.00;;;;;12.15;60.53;103182.09;5048478;28;10636;-66
2023/05/26 06:57:07;;;;;;;;;5.75;5.00;;;;;12.15;60.98;103183.94;5029969;28;9831;-67
2023/05/26 06:59:34;;;;;;;;;4.50;3.50;;;;;12.22;60.38;103190.47;5031488;28;9933;-65
2023/05/26 07:02:00;;;;;;;;;4.50;2.50;;;;;12.26;60.42;103184.63;5042746;28;9972;-67
2023/05/26 07:04:27;;;;;;;;;7.00;4.25;;;;;12.23;61.27;103198.41;5029450;28;9949;-66
2023/05/26 07:06:54;;;;;;;;;4.75;3.25;;;;;12.16;59.86;103186.50;5049031;28;10787;-67
2023/05/26 07:09:22;;;;;;;;;4.00;4.00;;;;;12.20;60.84;103196.03;5027894;28;9901;-66
2023/05/26 07:11:52;;;;;;;;;3.75;3.75;;;;;12.27;60.71;103193.56;5024107;28;9904;-66
2023/05/26 07:14:37;;;;;;;;;6.25;5.00;;;;;12.16;60.07;103200.00;5045400;28;9924;-67
2023/05/26 07:17:05;;;;;;;;;10.75;4.75;;;;;12.09;60.56;103191.63;5042605;28;9937;-68
2023/05/26 07:19:31;;;;;;;;;6.00;5.75;;;;;12.16;61.73;103197.31;5031142;28;9891;-66
2023/05/26 07:21:59;;;;;;;;;9.50;5.75;;;;;12.29;61.12;103214.03;5030829;28;9976;-66
2023/05/26 07:24:28;;;;;;;;;6.50;5.00;;;;;12.41;60.45;103200.34;5030650;28;10034;-67
2023/05/26 07:26:56;;;;;;;;;4.50;4.50;;;;;12.42;59.65;103210.16;5032233;28;10117;-66
2023/05/26 07:29:23;;;;;;;;;3.75;2.75;;;;;12.37;60.79;103206.03;5014032;28;9945;-66
2023/05/26 07:31:49;;;;;;;;;7.00;4.00;;;;;12.44;60.30;103206.31;5046958;28;9954;-67
2023/05/26 07:34:17;;;;;;;;;5.25;4.00;;;;;12.45;59.61;103207.16;5030935;28;9913;-65
2023/05/26 07:36:44;;;;;;;;;8.50;4.25;;;;;12.40;60.04;103202.19;5031905;28;9667;-66
2023/05/26 07:39:10;;;;;;;;;6.25;5.00;;;;;12.37;59.82;103207.91;5032130;28;9860;-67
2023/05/26 07:41:37;;;;;;;;;4.00;4.00;;;;;12.27;60.06;103207.91;5031885;28;10980;-66
2023/05/26 07:44:03;;;;;;;;;4.00;2.00;;;;;12.30;60.86;103202.22;5049821;28;9992;-66
2023/05/26 07:46:30;;;;;;;;;3.00;3.00;;;;;12.35;60.56;103189.13;5050034;28;9830;-67
2023/05/26 07:48:56;;;;;;;;;8.75;3.00;;;;;12.40;60.55;103195.91;5048540;28;9874;-66
2023/05/26 07:51:23;;;;;;;;;4.75;3.00;;;;;12.31;60.41;103192.25;5049178;28;9962;-66
2023/05/26 07:53:49;;;;;;;;;6.25;4.00;;;;;12.30;60.38;103187.88;5049101;28;9741;-67
2023/05/26 07:56:16;;;;;;;;;4.00;4.00;;;;;12.35;60.70;103190.97;5048440;28;10799;-65
2023/05/26 07:58:42;;;;;;;;;9.00;5.00;;;;;12.46;60.57;103187.25;5049750;28;10814;-66
2023/05/26 08:01:09;;;;;;;;;4.00;4.00;;;;;12.45;60.37;103190.94;5049663;28;10092;-66
2023/05/26 08:03:35;;;;;;;;;7.25;6.00;;;;;12.54;60.14;103187.34;5049358;28;10023;-68
2023/05/26 08:06:02;;;;;;;;;8.25;6.00;;;;;12.61;60.47;103181.19;5047660;28;10106;-69
2023/05/26 08:08:48;;;;;;;;;8.50;5.50;;;;;12.72;59.68;103196.38;5049325;28;10022;-69
2023/05/26 08:11:15;;;;;;;;;6.25;5.00;;;;;12.69;59.17;103193.09;5049402;28;9920;-67
2023/05/26 08:13:41;;;;;;;;;10.25;6.75;;;;;12.66;59.60;103196.09;5049473;28;9834;-68
2023/05/26 08:16:08;;;;;;;;;4.25;4.00;;;;;12.69;59.73;103188.53;5031772;28;9940;-71
2023/05/26 08:18:34;;;;;;;;;8.00;5.75;;;;;12.70;58.74;103190.25;5049484;28;9912;-68
2023/05/26 08:21:01;;;;;;;;;6.25;5.50;;;;;12.57;59.19;103190.59;5049352;28;10013;-68
2023/05/26 08:23:27;;;;;;;;;9.25;5.00;;;;;12.51;59.71;103195.75;5031128;28;9735;-68
2023/05/26 08:25:54;;;;;;;;;11.50;5.00;;;;;12.45;59.59;103190.94;5032617;28;10742;-68
2023/05/26 08:28:20;;;;;;;;;9.25;8.25;;;;;12.52;59.98;103195.59;5031424;28;9929;-69
2023/05/26 08:30:47;;;;;;;;;10.00;6.00;;;;;12.62;59.91;103187.44;5015138;28;10226;-68
2023/05/26 08:33:13;;;;;;;;;7.25;4.75;;;;;12.78;59.58;103192.19;5051257;28;10007;-68
2023/05/26 08:35:40;;;;;;;;;5.75;5.75;;;;;12.89;58.38;103202.81;5052203;28;9827;-68
2023/05/26 08:38:06;;;;;;;;;5.00;5.00;;;;;12.92;58.51;103196.22;5050182;28;9853;-67
2023/05/26 08:40:33;;;;;;;;;6.50;5.00;;;;;13.01;58.64;103184.50;5051317;28;9752;-68
2023/05/26 08:43:08;;;;;;;;;5.75;4.75;;;;;13.04;59.00;103193.16;5034466;28;9839;-68
2023/05/26 08:45:37;;;;;;;;;10.00;6.75;;;;;13.14;59.06;103190.38;5034193;28;9837;-68
2023/05/26 08:48:07;;;;;;;;;8.50;5.00;;;;;13.17;59.00;103190.09;5049852;28;9663;-68
2023/05/26 08:50:35;;;;;;;;;6.00;6.00;;;;;13.13;57.59;103201.38;5034322;28;9703;-69
2023/05/26 08:53:03;;;;;;;;;5.75;5.50;;;;;12.98;58.21;103199.19;5052017;28;9826;-68
2023/05/26 08:55:32;;;;;;;;;9.00;7.25;;;;;12.99;57.90;103198.16;5052094;28;10570;-68
2023/05/26 08:58:00;;;;;;;;;7.00;3.00;;;;;13.12;58.54;103200.50;5052415;28;9750;-67
2023/05/26 09:00:30;;;;;;;;;5.00;4.00;;;;;13.24;57.77;103201.16;5034352;28;9668;-68
2023/05/26 09:02:57;;;;;;;;;7.00;6.00;;;;;13.23;58.12;103196.75;5051359;28;9651;-69
2023/05/26 09:05:24;;;;;;;;;3.50;3.50;;;;;13.29;58.00;103207.81;5033202;28;9672;-68
2023/05/26 09:07:50;;;;;;;;;6.50;4.25;;;;;13.35;57.77;103195.53;5032240;28;9596;-68
2023/05/26 09:10:30;;;;;;;;;4.00;4.00;;;;;13.38;58.15;103202.50;5014261;28;9607;-67
2023/05/26 09:13:07;;;;;;;;;7.50;6.25;;;;;13.41;56.91;103200.31;5035526;28;9785;-68
2023/05/26 09:15:36;;;;;;;;;4.50;4.50;;;;;13.41;57.70;103194.91;5049865;28;9744;-69
2023/05/26 09:18:05;;;;;;;;;5.50;5.00;;;;;13.47;57.41;103199.69;5051867;28;9588;-68
2023/05/26 09:20:32;;;;;;;;;6.00;6.00;;;;;13.53;56.64;103200.91;5051959;28;9579;-68
2023/05/26 09:22:59;;;;;;;;;8.75;7.25;;;;;13.48;56.90;103197.81;5051785;28;9831;-67
2023/05/26 09:25:45;;;;;;;;;13.00;7.75;;;;;13.49;56.96;103196.81;5051339;28;10447;-68
2023/05/26 09:28:15;;;;;;;;;6.75;6.25;;;;;13.53;56.87;103203.63;5062890;28;9822;-69
2023/05/26 09:30:43;;;;;;;;;7.75;6.00;;;;;13.62;57.01;103194.59;5054124;28;9830;-68
2023/05/26 09:33:12;;;;;;;;;4.00;4.00;;;;;13.74;56.63;103200.59;5055733;28;9798;-64
2023/05/26 09:35:40;;;;;;;;;6.00;5.50;;;;;13.93;56.56;103196.81;5051240;28;9601;-69
2023/05/26 09:38:08;;;;;;;;;6.00;6.00;;;;;13.98;56.15;103191.81;5051443;28;9755;-68
2023/05/26 09:40:43;;;;;;;;;6.25;5.00;;;;;13.97;55.95;103192.78;5050037;28;9773;-69
2023/05/26 09:43:10;;;;;;;;;6.25;6.25;;;;;13.98;56.21;103202.63;5050002;28;10441;-68
2023/05/26 09:45:39;;;;;;;;;3.00;3.00;;;;;14.04;55.94;103204.69;5049335;28;9565;-68
2023/05/26 09:48:09;;;;;;;;;3.25;3.25;;;;;14.10;55.85;103195.94;5050271;28;9673;-68
2023/05/26 09:50:38;;;;;;;;;11.50;5.25;;;;;14.08;55.86;103203.34;5033717;28;9447;-68
2023/05/26 09:53:09;;;;;;;;;6.25;6.25;;;;;14.04;55.36;103192.00;5051272;28;9521;-68
2023/05/26 09:55:38;;;;;;;;;9.00;5.50;;;;;14.05;55.73;103199.09;5050990;28;9528;-68
2023/05/26 09:58:07;;;;;;;;;4.25;4.25;;;;;14.05;56.62;103203.66;5033519;28;9564;-69
2023/05/26 10:00:35;;;;;;;;;9.00;3.00;;;;;14.12;56.56;103191.19;5050706;28;9694;-69
2023/05/26 10:03:05;;;;;;;;;5.75;5.75;;;;;14.16;55.53;103198.00;5049380;28;9520;-69
2023/05/26 10:05:33;;;;;;;;;6.00;5.75;;;;;14.10;56.07;103185.94;5050711;28;9452;-68
2023/05/26 10:08:01;;;;;;;;;10.25;5.75;;;;;14.13;55.60;103195.59;5050891;28;9467;-69
2023/05/26 10:10:29;;;;;;;;;9.25;7.00;;;;;14.14;56.15;103193.72;5051028;28;9455;-69
2023/05/26 10:12:56;;;;;;;;;4.33;4.00;;;;;14.26;55.35;103208.69;5049361;28;9621;-69
2023/05/26 10:15:23;;;;;;;;;6.75;5.00;;;;;14.29;55.39;103194.84;5050434;28;9375;-68
2023/05/26 10:17:49;;;;;;;;;6.67;5.33;;;;;14.32;54.05;103206.22;5050561;28;9471;-69
2023/05/26 10:20:17;;;;;;;;;3.00;3.00;;;;;14.38;55.03;103201.16;5050845;28;9321;-69
2023/05/26 10:22:52;;;;;;;;;5.00;3.33;;;;;14.49;54.60;103199.03;5050498;28;9302;-69
2023/05/26 10:25:31;;;;;;;;;2.67;2.67;;;;;14.47;53.98;103189.34;5050307;28;9359;-68
2023/05/26 10:28:18;;;;;;;;;9.25;4.25;;;;;14.42;53.56;103189.84;5049211;28;9425;-69
2023/05/26 10:30:44;;;;;;;;;5.00;2.67;;;;;14.40;53.88;103191.00;5030500;28;9555;-69
2023/05/26 10:33:15;;;;;;;;;6.00;6.00;;;;;14.43;53.79;103186.13;5030704;28;9449;-68
2023/05/26 10:36:05;;;;;;;;;5.00;5.00;;;;;14.49;54.00;103190.91;5030443;28;9437;-67
2023/05/26 10:38:37;;;;;;;;;5.33;3.00;;;;;14.52;53.80;103187.88;5030359;28;10208;-69
2023/05/26 10:41:11;;;;;;;;;3.67;3.67;;;;;14.59;53.90;103185.38;5038541;28;9381;-69
2023/05/26 10:43:38;;;;;;;;;4.00;2.00;;;;;14.64;52.56;103176.75;5030078;28;9366;-68
2023/05/26 10:46:06;;;;;;;;;5.00;3.67;;;;;14.72;50.97;103182.19;5050022;28;9441;-69
2023/05/26 10:48:56;;;;;;;;;7.00;4.00;;;;;14.67;51.40;103185.41;5050514;28;9312;-69
2023/05/26 10:51:28;;;;;;;;;4.00;4.00;;;;;14.72;51.40;103177.63;5050299;28;9288;-69
2023/05/26 10:53:56;;;;;;;;;3.67;3.67;;;;;14.81;51.62;103175.78;5050388;28;9412;-69
2023/05/26 10:56:41;;;;;;;;;9.33;5.00;;;;;14.79;51.43;103175.97;5048621;28;9201;-69
2023/05/26 10:59:19;;;;;;;;;3.00;2.00;;;;;14.86;52.28;103176.13;5032416;28;9324;-69
2023/05/26 11:01:51;;;;;;;;;5.25;3.75;;;;;14.84;50.82;103181.72;5049893;28;9220;-67
2023/05/26 11:04:18;;;;;;;;;3.67;3.67;;;;;14.80;51.63;103185.78;5032147;28;9440;-69
2023/05/26 11:06:48;;;;;;;;;4.00;3.67;;;;;14.79;51.47;103192.22;5049653;28;9431;-69
2023/05/26 11:09:15;;;;;;;;;5.33;4.33;;;;;14.80;51.34;103168.66;5031505;28;9333;-70
2023/05/26 11:11:53;;;;;;;;;3.00;2.00;;;;;14.81;50.44;103184.75;5048703;28;9231;-69
2023/05/26 11:14:25;;;;;;;;;3.00;3.00;;;;;14.82;49.78;103186.44;5048478;28;9724;-69
2023/05/26 11:16:56;;;;;;;;;6.00;5.00;;;;;14.84;50.72;103184.44;5049546;28;9238;-69
2023/05/26 11:19:38;;;;;;;;;2.00;2.00;;;;;14.90;51.13;103182.06;5049975;28;10096;-69
2023/05/26 11:22:10;;;;;;;;;5.00;5.00;;;;;15.00;50.85;103180.06;5031993;28;9375;-69
2023/05/26 11:24:37;;;;;;;;;3.67;1.00;;;;;14.99;50.45;103162.06;5048338;28;9213;-69
2023/05/26 11:27:05;;;;;;;;;4.00;4.00;;;;;15.06;50.07;103173.97;5049761;28;9148;-70
2023/05/26 11:29:32;;;;;;;;;2.33;2.00;;;;;15.10;49.68;103167.19;5049870;28;9962;-69
2023/05/26 11:31:59;;;;;;;;;2.00;2.00;;;;;15.20;50.88;103164.34;5032265;28;9310;-63
2023/05/26 11:34:26;;;;;;;;;3.00;3.00;;;;;15.36;49.35;103174.34;5049375;28;9327;-65
2023/05/26 11:36:58;;;;;;;;;8.33;4.67;;;;;15.37;48.74;103167.91;5049228;28;9930;-70